sensor_id;sensor_type;location;lat;lon;timestamp;pressure;altitude;pressure_sealevel;temperature
40968;BMP280;57377;45.130;6.038;2023-02-01T00:01:44;93509.25;;;2.63
40968;BMP280;57377;45.130;6.038;2023-02-01T00:04:10;93509.34;;;2.75
40968;BMP280;57377;45.130;6.038;2023-02-01T00:06:35;93504.84;;;2.99
40968;BMP280;57377;45.130;6.038;2023-02-01T00:09:01;93505.03;;;2.87
40968;BMP280;57377;45.130;6.038;2023-02-01T00:11:27;93506.00;;;3.03
40968;BMP280;57377;45.130;6.038;2023-02-01T00:13:52;93500.81;;;2.92
40968;BMP280;57377;45.130;6.038;2023-02-01T00:16:24;93506.31;;;2.95
40968;BMP280;57377;45.130;6.038;2023-02-01T00:18:51;93504.63;;;2.72
40968;BMP280;57377;45.130;6.038;2023-02-01T00:21:18;93501.94;;;2.96
40968;BMP280;57377;45.130;6.038;2023-02-01T00:23:45;93505.25;;;2.85
40968;BMP280;57377;45.130;6.038;2023-02-01T00:26:14;93496.69;;;3.02
40968;BMP280;57377;45.130;6.038;2023-02-01T00:28:41;93499.41;;;3.07
40968;BMP280;57377;45.130;6.038;2023-02-01T00:31:06;93491.09;;;3.23
40968;BMP280;57377;45.130;6.038;2023-02-01T00:33:32;93509.91;;;3.35
40968;BMP280;57377;45.130;6.038;2023-02-01T00:36:06;93508.66;;;3.26
40968;BMP280;57377;45.130;6.038;2023-02-01T00:38:33;93508.97;;;2.89
40968;BMP280;57377;45.130;6.038;2023-02-01T00:41:05;93504.56;;;2.60
40968;BMP280;57377;45.130;6.038;2023-02-01T00:43:32;93504.63;;;2.54
40968;BMP280;57377;45.130;6.038;2023-02-01T00:45:58;93507.41;;;2.70
40968;BMP280;57377;45.130;6.038;2023-02-01T00:48:25;93504.09;;;2.99
40968;BMP280;57377;45.130;6.038;2023-02-01T00:50:50;93503.06;;;3.00
40968;BMP280;57377;45.130;6.038;2023-02-01T00:53:16;93507.88;;;2.96
40968;BMP280;57377;45.130;6.038;2023-02-01T00:55:45;93507.34;;;2.77
40968;BMP280;57377;45.130;6.038;2023-02-01T00:58:11;93508.75;;;2.73
40968;BMP280;57377;45.130;6.038;2023-02-01T01:00:36;93511.59;;;2.83
40968;BMP280;57377;45.130;6.038;2023-02-01T01:03:02;93506.44;;;3.00
40968;BMP280;57377;45.130;6.038;2023-02-01T01:05:27;93516.03;;;3.05
40968;BMP280;57377;45.130;6.038;2023-02-01T01:07:53;93514.75;;;2.85
40968;BMP280;57377;45.130;6.038;2023-02-01T01:10:18;93513.25;;;2.77
40968;BMP280;57377;45.130;6.038;2023-02-01T01:12:44;93514.16;;;2.83
40968;BMP280;57377;45.130;6.038;2023-02-01T01:15:10;93520.31;;;2.82
40968;BMP280;57377;45.130;6.038;2023-02-01T01:17:35;93525.81;;;2.50
40968;BMP280;57377;45.130;6.038;2023-02-01T01:20:01;93523.25;;;2.67
40968;BMP280;57377;45.130;6.038;2023-02-01T01:22:27;93525.53;;;2.75
40968;BMP280;57377;45.130;6.038;2023-02-01T01:24:52;93533.44;;;2.56
40968;BMP280;57377;45.130;6.038;2023-02-01T01:27:17;93537.19;;;2.18
40968;BMP280;57377;45.130;6.038;2023-02-01T01:29:48;93537.38;;;2.41
40968;BMP280;57377;45.130;6.038;2023-02-01T01:32:13;93534.94;;;2.63
40968;BMP280;57377;45.130;6.038;2023-02-01T01:34:39;93536.84;;;2.86
40968;BMP280;57377;45.130;6.038;2023-02-01T01:37:04;93533.75;;;2.84
40968;BMP280;57377;45.130;6.038;2023-02-01T01:39:30;93529.75;;;2.70
40968;BMP280;57377;45.130;6.038;2023-02-01T01:41:55;93527.66;;;2.78
40968;BMP280;57377;45.130;6.038;2023-02-01T01:45:38;93526.06;;;2.95
40968;BMP280;57377;45.130;6.038;2023-02-01T01:47:43;93521.75;;;3.07
40968;BMP280;57377;45.130;6.038;2023-02-01T01:50:11;93532.84;;;2.89
40968;BMP280;57377;45.130;6.038;2023-02-01T01:52:39;93526.91;;;2.60
40968;BMP280;57377;45.130;6.038;2023-02-01T01:55:06;93526.16;;;2.71
40968;BMP280;57377;45.130;6.038;2023-02-01T01:57:37;93533.06;;;2.88
40968;BMP280;57377;45.130;6.038;2023-02-01T02:00:13;93536.41;;;2.59
40968;BMP280;57377;45.130;6.038;2023-02-01T02:02:44;93528.19;;;2.51
40968;BMP280;57377;45.130;6.038;2023-02-01T02:05:11;93530.19;;;2.67
40968;BMP280;57377;45.130;6.038;2023-02-01T02:07:40;93529.03;;;2.63
40968;BMP280;57377;45.130;6.038;2023-02-01T02:10:09;93531.75;;;2.50
40968;BMP280;57377;45.130;6.038;2023-02-01T02:12:38;93527.75;;;2.54
40968;BMP280;57377;45.130;6.038;2023-02-01T02:15:05;93527.03;;;2.65
40968;BMP280;57377;45.130;6.038;2023-02-01T02:17:44;93525.28;;;2.94
40968;BMP280;57377;45.130;6.038;2023-02-01T02:20:30;93533.84;;;3.06
40968;BMP280;57377;45.130;6.038;2023-02-01T02:23:09;93533.19;;;3.11
40968;BMP280;57377;45.130;6.038;2023-02-01T02:33:41;93527.38;;;2.68
40968;BMP280;57377;45.130;6.038;2023-02-01T02:39:05;93526.88;;;2.95
40968;BMP280;57377;45.130;6.038;2023-02-01T02:42:24;93519.69;;;2.97
40968;BMP280;57377;45.130;6.038;2023-02-01T02:45:01;93534.16;;;2.27
40968;BMP280;57377;45.130;6.038;2023-02-01T02:50:41;93526.03;;;2.66
40968;BMP280;57377;45.130;6.038;2023-02-01T02:53:48;93536.31;;;2.66
40968;BMP280;57377;45.130;6.038;2023-02-01T03:00:59;93536.72;;;2.27
40968;BMP280;57377;45.130;6.038;2023-02-01T03:03:51;93529.44;;;2.78
40968;BMP280;57377;45.130;6.038;2023-02-01T03:07:13;93528.16;;;2.69
40968;BMP280;57377;45.130;6.038;2023-02-01T03:13:02;93530.88;;;2.56
40968;BMP280;57377;45.130;6.038;2023-02-01T03:15:59;93529.16;;;2.68
40968;BMP280;57377;45.130;6.038;2023-02-01T03:19:00;93522.69;;;3.12
40968;BMP280;57377;45.130;6.038;2023-02-01T03:22:05;93520.50;;;3.27
40968;BMP280;57377;45.130;6.038;2023-02-01T03:24:42;93516.06;;;3.34
40968;BMP280;57377;45.130;6.038;2023-02-01T03:33:58;93521.97;;;2.76
40968;BMP280;57377;45.130;6.038;2023-02-01T04:20:00;93497.09;;;3.46
40968;BMP280;57377;45.130;6.038;2023-02-01T04:22:33;93503.88;;;3.00
40968;BMP280;57377;45.130;6.038;2023-02-01T04:24:59;93498.75;;;3.12
40968;BMP280;57377;45.130;6.038;2023-02-01T04:27:24;93502.28;;;2.99
40968;BMP280;57377;45.130;6.038;2023-02-01T04:29:50;93512.47;;;2.77
40968;BMP280;57377;45.130;6.038;2023-02-01T04:32:16;93519.28;;;3.00
40968;BMP280;57377;45.130;6.038;2023-02-01T04:34:51;93516.22;;;2.92
40968;BMP280;57377;45.130;6.038;2023-02-01T04:37:16;93520.06;;;3.01
40968;BMP280;57377;45.130;6.038;2023-02-01T04:39:42;93516.75;;;3.12
40968;BMP280;57377;45.130;6.038;2023-02-01T04:42:08;93522.75;;;2.77
40968;BMP280;57377;45.130;6.038;2023-02-01T04:44:36;93520.66;;;2.85
40968;BMP280;57377;45.130;6.038;2023-02-01T04:47:04;93516.94;;;2.99
40968;BMP280;57377;45.130;6.038;2023-02-01T04:49:31;93521.72;;;2.95
40968;BMP280;57377;45.130;6.038;2023-02-01T04:53:01;93522.72;;;2.94
40968;BMP280;57377;45.130;6.038;2023-02-01T04:58:21;93519.38;;;2.94
40968;BMP280;57377;45.130;6.038;2023-02-01T05:01:12;93519.97;;;3.07
40968;BMP280;57377;45.130;6.038;2023-02-01T05:04:11;93513.72;;;2.86
40968;BMP280;57377;45.130;6.038;2023-02-01T05:07:04;93513.91;;;3.19
40968;BMP280;57377;45.130;6.038;2023-02-01T05:10:19;93514.66;;;3.20
40968;BMP280;57377;45.130;6.038;2023-02-01T05:13:10;93507.16;;;3.18
40968;BMP280;57377;45.130;6.038;2023-02-01T06:22:48;93524.25;;;3.42
40968;BMP280;57377;45.130;6.038;2023-02-01T06:25:14;93539.19;;;3.63
40968;BMP280;57377;45.130;6.038;2023-02-01T06:27:39;93531.47;;;3.74
40968;BMP280;57377;45.130;6.038;2023-02-01T06:30:06;93531.22;;;3.64
40968;BMP280;57377;45.130;6.038;2023-02-01T06:32:32;93532.94;;;3.70
40968;BMP280;57377;45.130;6.038;2023-02-01T06:34:57;93540.41;;;3.72
40968;BMP280;57377;45.130;6.038;2023-02-01T06:37:26;93538.50;;;3.56
40968;BMP280;57377;45.130;6.038;2023-02-01T06:39:54;93536.19;;;3.37
40968;BMP280;57377;45.130;6.038;2023-02-01T06:42:20;93547.34;;;3.31
40968;BMP280;57377;45.130;6.038;2023-02-01T06:44:45;93547.00;;;3.56
40968;BMP280;57377;45.130;6.038;2023-02-01T06:47:11;93548.16;;;3.31
40968;BMP280;57377;45.130;6.038;2023-02-01T06:49:36;93540.25;;;3.44
40968;BMP280;57377;45.130;6.038;2023-02-01T06:52:02;93544.09;;;3.64
40968;BMP280;57377;45.130;6.038;2023-02-01T06:54:28;93548.50;;;3.75
40968;BMP280;57377;45.130;6.038;2023-02-01T06:56:54;93547.91;;;3.62
40968;BMP280;57377;45.130;6.038;2023-02-01T06:59:20;93551.53;;;3.14
40968;BMP280;57377;45.130;6.038;2023-02-01T07:01:45;93547.66;;;3.23
40968;BMP280;57377;45.130;6.038;2023-02-01T07:04:11;93566.69;;;3.04
40968;BMP280;57377;45.130;6.038;2023-02-01T07:06:38;93558.97;;;3.22
40968;BMP280;57377;45.130;6.038;2023-02-01T07:09:03;93553.56;;;3.52
40968;BMP280;57377;45.130;6.038;2023-02-01T07:11:29;93564.69;;;3.64
40968;BMP280;57377;45.130;6.038;2023-02-01T07:13:55;93548.81;;;3.38
40968;BMP280;57377;45.130;6.038;2023-02-01T07:16:21;93559.38;;;3.19
40968;BMP280;57377;45.130;6.038;2023-02-01T07:18:47;93560.06;;;3.26
40968;BMP280;57377;45.130;6.038;2023-02-01T07:21:13;93548.94;;;3.43
40968;BMP280;57377;45.130;6.038;2023-02-01T07:23:38;93551.13;;;3.57
40968;BMP280;57377;45.130;6.038;2023-02-01T07:26:05;93556.66;;;3.72
40968;BMP280;57377;45.130;6.038;2023-02-01T07:28:32;93563.38;;;3.73
40968;BMP280;57377;45.130;6.038;2023-02-01T07:31:05;93551.53;;;3.43
40968;BMP280;57377;45.130;6.038;2023-02-01T07:33:31;93554.47;;;3.29
40968;BMP280;57377;45.130;6.038;2023-02-01T07:35:57;93552.34;;;3.15
40968;BMP280;57377;45.130;6.038;2023-02-01T07:38:22;93567.06;;;3.19
40968;BMP280;57377;45.130;6.038;2023-02-01T07:40:49;93564.94;;;3.34
40968;BMP280;57377;45.130;6.038;2023-02-01T07:43:15;93561.19;;;3.59
40968;BMP280;57377;45.130;6.038;2023-02-01T07:45:40;93571.03;;;3.62
40968;BMP280;57377;45.130;6.038;2023-02-01T07:48:06;93571.03;;;3.62
40968;BMP280;57377;45.130;6.038;2023-02-01T07:50:32;93564.06;;;3.80
40968;BMP280;57377;45.130;6.038;2023-02-01T07:53:00;93570.00;;;3.92
40968;BMP280;57377;45.130;6.038;2023-02-01T07:55:26;93578.72;;;3.91
40968;BMP280;57377;45.130;6.038;2023-02-01T07:57:52;93579.66;;;3.96
40968;BMP280;57377;45.130;6.038;2023-02-01T08:00:18;93579.66;;;3.96
40968;BMP280;57377;45.130;6.038;2023-02-01T08:03:03;93581.09;;;3.52
40968;BMP280;57377;45.130;6.038;2023-02-01T08:05:29;93579.53;;;3.51
40968;BMP280;57377;45.130;6.038;2023-02-01T08:07:55;93578.31;;;3.53
40968;BMP280;57377;45.130;6.038;2023-02-01T08:10:20;93580.56;;;3.61
40968;BMP280;57377;45.130;6.038;2023-02-01T08:12:46;93575.66;;;3.71
40968;BMP280;57377;45.130;6.038;2023-02-01T08:15:16;93588.34;;;3.44
40968;BMP280;57377;45.130;6.038;2023-02-01T08:17:51;93591.41;;;2.52
40968;BMP280;57377;45.130;6.038;2023-02-01T08:20:18;93596.06;;;2.13
40968;BMP280;57377;45.130;6.038;2023-02-01T08:22:44;93597.22;;;2.59
40968;BMP280;57377;45.130;6.038;2023-02-01T08:25:10;93604.09;;;2.65
40968;BMP280;57377;45.130;6.038;2023-02-01T08:27:36;93591.16;;;3.07
40968;BMP280;57377;45.130;6.038;2023-02-01T08:30:02;93614.53;;;3.05
40968;BMP280;57377;45.130;6.038;2023-02-01T08:32:28;93613.72;;;3.22
40968;BMP280;57377;45.130;6.038;2023-02-01T08:34:53;93619.88;;;3.04
40968;BMP280;57377;45.130;6.038;2023-02-01T08:37:19;93626.59;;;3.22
40968;BMP280;57377;45.130;6.038;2023-02-01T08:39:44;93611.78;;;3.65
40968;BMP280;57377;45.130;6.038;2023-02-01T08:42:11;93595.63;;;3.87
40968;BMP280;57377;45.130;6.038;2023-02-01T08:44:55;93606.06;;;3.34
40968;BMP280;57377;45.130;6.038;2023-02-01T08:47:20;93611.66;;;2.78
40968;BMP280;57377;45.130;6.038;2023-02-01T08:49:46;93622.88;;;2.83
40968;BMP280;57377;45.130;6.038;2023-02-01T08:52:12;93627.53;;;3.10
40968;BMP280;57377;45.130;6.038;2023-02-01T08:54:37;93621.97;;;3.42
40968;BMP280;57377;45.130;6.038;2023-02-01T08:57:04;93615.94;;;3.37
40968;BMP280;57377;45.130;6.038;2023-02-01T08:59:30;93622.56;;;3.44
40968;BMP280;57377;45.130;6.038;2023-02-01T09:01:58;93630.53;;;3.54
40968;BMP280;57377;45.130;6.038;2023-02-01T09:04:26;93642.00;;;3.69
40968;BMP280;57377;45.130;6.038;2023-02-01T09:06:51;93647.00;;;3.82
40968;BMP280;57377;45.130;6.038;2023-02-01T09:09:17;93640.09;;;3.94
40968;BMP280;57377;45.130;6.038;2023-02-01T09:11:42;93648.72;;;3.99
40968;BMP280;57377;45.130;6.038;2023-02-01T09:14:08;93649.16;;;4.08
40968;BMP280;57377;45.130;6.038;2023-02-01T09:16:33;93638.47;;;3.52
40968;BMP280;57377;45.130;6.038;2023-02-01T09:18:59;93645.63;;;3.51
40968;BMP280;57377;45.130;6.038;2023-02-01T09:21:24;93636.97;;;3.45
40968;BMP280;57377;45.130;6.038;2023-02-01T09:23:52;93628.03;;;3.65
40968;BMP280;57377;45.130;6.038;2023-02-01T09:26:18;93629.56;;;3.66
40968;BMP280;57377;45.130;6.038;2023-02-01T09:28:43;93622.66;;;4.07
40968;BMP280;57377;45.130;6.038;2023-02-01T09:31:09;93627.19;;;3.53
40968;BMP280;57377;45.130;6.038;2023-02-01T09:33:35;93626.88;;;3.61
40968;BMP280;57377;45.130;6.038;2023-02-01T09:36:03;93627.69;;;3.44
40968;BMP280;57377;45.130;6.038;2023-02-01T09:38:29;93627.75;;;3.55
40968;BMP280;57377;45.130;6.038;2023-02-01T09:40:56;93633.69;;;3.85
40968;BMP280;57377;45.130;6.038;2023-02-01T09:48:49;93644.81;;;3.79
40968;BMP280;57377;45.130;6.038;2023-02-01T09:51:27;93639.56;;;4.14
40968;BMP280;57377;45.130;6.038;2023-02-01T09:54:02;93636.34;;;4.30
40968;BMP280;57377;45.130;6.038;2023-02-01T09:56:44;93647.88;;;4.39
40968;BMP280;57377;45.130;6.038;2023-02-01T09:59:40;93642.31;;;4.53
40968;BMP280;57377;45.130;6.038;2023-02-01T10:02:17;93642.75;;;4.28
40968;BMP280;57377;45.130;6.038;2023-02-01T10:04:44;93655.06;;;4.37
40968;BMP280;57377;45.130;6.038;2023-02-01T10:10:11;93669.72;;;4.37
40968;BMP280;57377;45.130;6.038;2023-02-01T10:20:47;93661.81;;;4.61
40968;BMP280;57377;45.130;6.038;2023-02-01T10:23:50;93662.28;;;4.80
40968;BMP280;57377;45.130;6.038;2023-02-01T10:26:23;93674.94;;;4.93
40968;BMP280;57377;45.130;6.038;2023-02-01T10:28:54;93679.19;;;4.88
40968;BMP280;57377;45.130;6.038;2023-02-01T10:31:24;93686.00;;;4.82
40968;BMP280;57377;45.130;6.038;2023-02-01T10:33:55;93683.13;;;4.90
40968;BMP280;57377;45.130;6.038;2023-02-01T10:36:34;93682.66;;;4.82
40968;BMP280;57377;45.130;6.038;2023-02-01T10:39:10;93674.47;;;4.96
40968;BMP280;57377;45.130;6.038;2023-02-01T10:41:39;93671.59;;;5.04
40968;BMP280;57377;45.130;6.038;2023-02-01T10:44:26;93672.31;;;5.16
40968;BMP280;57377;45.130;6.038;2023-02-01T10:46:56;93681.34;;;5.02
40968;BMP280;57377;45.130;6.038;2023-02-01T10:49:45;93679.75;;;4.78
40968;BMP280;57377;45.130;6.038;2023-02-01T10:52:26;93684.47;;;5.04
40968;BMP280;57377;45.130;6.038;2023-02-01T10:55:25;93680.63;;;5.18
40968;BMP280;57377;45.130;6.038;2023-02-01T10:58:03;93682.28;;;5.35
40968;BMP280;57377;45.130;6.038;2023-02-01T11:00:44;93665.56;;;5.38
40968;BMP280;57377;45.130;6.038;2023-02-01T11:07:38;93677.22;;;5.51
40968;BMP280;57377;45.130;6.038;2023-02-01T11:09:52;93677.88;;;5.97
40968;BMP280;57377;45.130;6.038;2023-02-01T11:12:39;93678.75;;;6.30
40968;BMP280;57377;45.130;6.038;2023-02-01T11:15:26;93678.47;;;6.15
40968;BMP280;57377;45.130;6.038;2023-02-01T11:17:54;93665.59;;;6.48
40968;BMP280;57377;45.130;6.038;2023-02-01T11:23:54;93649.75;;;6.93
40968;BMP280;57377;45.130;6.038;2023-02-01T12:56:07;93448.19;;;10.61
40968;BMP280;57377;45.130;6.038;2023-02-01T13:14:59;93432.63;;;8.73
40968;BMP280;57377;45.130;6.038;2023-02-01T13:51:00;93438.25;;;8.14
40968;BMP280;57377;45.130;6.038;2023-02-01T13:54:03;93441.94;;;8.23
40968;BMP280;57377;45.130;6.038;2023-02-01T13:57:34;93449.91;;;8.53
40968;BMP280;57377;45.130;6.038;2023-02-01T14:04:51;93447.25;;;8.07
40968;BMP280;57377;45.130;6.038;2023-02-01T14:11:04;93447.44;;;7.65
40968;BMP280;57377;45.130;6.038;2023-02-01T14:17:52;93447.44;;;7.96
40968;BMP280;57377;45.130;6.038;2023-02-01T14:24:36;93438.00;;;7.85
40968;BMP280;57377;45.130;6.038;2023-02-01T14:30:16;93435.44;;;7.90
40968;BMP280;57377;45.130;6.038;2023-02-01T14:33:57;93446.22;;;7.46
40968;BMP280;57377;45.130;6.038;2023-02-01T14:40:24;93428.91;;;7.51
40968;BMP280;57377;45.130;6.038;2023-02-01T14:43:12;93435.16;;;7.55
40968;BMP280;57377;45.130;6.038;2023-02-01T14:53:25;93414.81;;;7.99
40968;BMP280;57377;45.130;6.038;2023-02-01T14:56:55;93415.50;;;7.54
40968;BMP280;57377;45.130;6.038;2023-02-01T14:59:49;93423.56;;;7.63
40968;BMP280;57377;45.130;6.038;2023-02-01T15:06:47;93412.31;;;7.47
40968;BMP280;57377;45.130;6.038;2023-02-01T15:09:53;93402.53;;;7.85
40968;BMP280;57377;45.130;6.038;2023-02-01T15:12:27;93410.22;;;7.75
40968;BMP280;57377;45.130;6.038;2023-02-01T15:15:16;93420.53;;;7.39
40968;BMP280;57377;45.130;6.038;2023-02-01T15:18:26;93426.13;;;7.05
40968;BMP280;57377;45.130;6.038;2023-02-01T15:21:50;93433.19;;;7.36
40968;BMP280;57377;45.130;6.038;2023-02-01T15:24:25;93429.41;;;7.48
40968;BMP280;57377;45.130;6.038;2023-02-01T15:27:10;93424.72;;;7.45
40968;BMP280;57377;45.130;6.038;2023-02-01T15:30:25;93427.72;;;7.33
40968;BMP280;57377;45.130;6.038;2023-02-01T15:33:27;93424.69;;;7.14
40968;BMP280;57377;45.130;6.038;2023-02-01T15:36:18;93434.94;;;7.04
40968;BMP280;57377;45.130;6.038;2023-02-01T15:39:22;93442.22;;;6.86
40968;BMP280;57377;45.130;6.038;2023-02-01T15:42:12;93437.53;;;6.83
40968;BMP280;57377;45.130;6.038;2023-02-01T15:44:48;93430.88;;;6.66
40968;BMP280;57377;45.130;6.038;2023-02-01T15:47:25;93421.91;;;6.73
40968;BMP280;57377;45.130;6.038;2023-02-01T15:49:53;93438.06;;;6.06
40968;BMP280;57377;45.130;6.038;2023-02-01T15:52:34;93432.28;;;6.15
40968;BMP280;57377;45.130;6.038;2023-02-01T15:55:20;93435.34;;;6.33
40968;BMP280;57377;45.130;6.038;2023-02-01T15:57:49;93437.78;;;6.39
40968;BMP280;57377;45.130;6.038;2023-02-01T16:00:23;93426.47;;;6.24
40968;BMP280;57377;45.130;6.038;2023-02-01T16:03:01;93438.72;;;5.80
40968;BMP280;57377;45.130;6.038;2023-02-01T16:05:40;93451.41;;;5.81
40968;BMP280;57377;45.130;6.038;2023-02-01T16:08:22;93454.13;;;5.91
40968;BMP280;57377;45.130;6.038;2023-02-01T16:10:50;93456.47;;;5.93
40968;BMP280;57377;45.130;6.038;2023-02-01T16:13:18;93453.50;;;6.01
40968;BMP280;57377;45.130;6.038;2023-02-01T16:15:44;93451.78;;;6.06
40968;BMP280;57377;45.130;6.038;2023-02-01T16:18:11;93454.56;;;6.05
40968;BMP280;57377;45.130;6.038;2023-02-01T16:20:42;93461.41;;;6.10
40968;BMP280;57377;45.130;6.038;2023-02-01T16:23:18;93458.78;;;5.62
40968;BMP280;57377;45.130;6.038;2023-02-01T16:25:53;93476.06;;;5.61
40968;BMP280;57377;45.130;6.038;2023-02-01T16:28:26;93472.94;;;5.43
40968;BMP280;57377;45.130;6.038;2023-02-01T16:30:58;93471.84;;;5.55
40968;BMP280;57377;45.130;6.038;2023-02-01T16:33:25;93481.84;;;5.36
40968;BMP280;57377;45.130;6.038;2023-02-01T16:35:52;93478.06;;;5.27
40968;BMP280;57377;45.130;6.038;2023-02-01T16:38:24;93482.31;;;5.49
40968;BMP280;57377;45.130;6.038;2023-02-01T16:56:57;93504.97;;;5.47
40968;BMP280;57377;45.130;6.038;2023-02-01T16:59:31;93508.25;;;5.26
40968;BMP280;57377;45.130;6.038;2023-02-01T17:02:19;93512.50;;;5.21
40968;BMP280;57377;45.130;6.038;2023-02-01T17:07:40;93518.88;;;5.02
40968;BMP280;57377;45.130;6.038;2023-02-01T17:11:03;93530.25;;;5.17
40968;BMP280;57377;45.130;6.038;2023-02-01T17:13:46;93527.84;;;5.00
40968;BMP280;57377;45.130;6.038;2023-02-01T17:16:37;93533.84;;;5.16
40968;BMP280;57377;45.130;6.038;2023-02-01T17:19:29;93547.16;;;4.75
40968;BMP280;57377;45.130;6.038;2023-02-01T17:22:06;93540.09;;;4.81
40968;BMP280;57377;45.130;6.038;2023-02-01T17:25:29;93556.88;;;4.95
40968;BMP280;57377;45.130;6.038;2023-02-01T17:28:29;93566.84;;;4.92
40968;BMP280;57377;45.130;6.038;2023-02-01T17:31:38;93560.47;;;4.94
40968;BMP280;57377;45.130;6.038;2023-02-01T17:34:31;93560.41;;;4.78
40968;BMP280;57377;45.130;6.038;2023-02-01T17:40:20;93560.41;;;4.78
40968;BMP280;57377;45.130;6.038;2023-02-01T17:42:46;93558.59;;;4.78
40968;BMP280;57377;45.130;6.038;2023-02-01T17:45:39;93555.59;;;4.36
40968;BMP280;57377;45.130;6.038;2023-02-01T17:48:16;93552.13;;;4.53
40968;BMP280;57377;45.130;6.038;2023-02-01T17:50:41;93549.47;;;4.37
40968;BMP280;57377;45.130;6.038;2023-02-01T17:53:10;93562.44;;;4.42
40968;BMP280;57377;45.130;6.038;2023-02-01T17:55:41;93575.97;;;4.72
40968;BMP280;57377;45.130;6.038;2023-02-01T17:58:10;93575.75;;;4.62
40968;BMP280;57377;45.130;6.038;2023-02-01T18:00:41;93570.50;;;4.68
40968;BMP280;57377;45.130;6.038;2023-02-01T18:03:29;93572.88;;;4.47
40968;BMP280;57377;45.130;6.038;2023-02-01T18:05:57;93570.72;;;4.55
40968;BMP280;57377;45.130;6.038;2023-02-01T18:08:29;93571.06;;;4.59
40968;BMP280;57377;45.130;6.038;2023-02-01T18:11:02;93571.59;;;4.72
40968;BMP280;57377;45.130;6.038;2023-02-01T18:13:29;93567.38;;;4.66
40968;BMP280;57377;45.130;6.038;2023-02-01T18:15:55;93565.50;;;4.89
40968;BMP280;57377;45.130;6.038;2023-02-01T18:18:23;93570.78;;;4.94
40968;BMP280;57377;45.130;6.038;2023-02-01T18:20:49;93566.78;;;4.76
40968;BMP280;57377;45.130;6.038;2023-02-01T18:23:17;93568.13;;;4.67
40968;BMP280;57377;45.130;6.038;2023-02-01T18:25:46;93565.25;;;4.52
40968;BMP280;57377;45.130;6.038;2023-02-01T18:28:13;93573.53;;;4.54
40968;BMP280;57377;45.130;6.038;2023-02-01T18:30:46;93565.69;;;4.49
40968;BMP280;57377;45.130;6.038;2023-02-01T18:33:16;93564.44;;;4.63
40968;BMP280;57377;45.130;6.038;2023-02-01T18:35:45;93576.22;;;4.59
40968;BMP280;57377;45.130;6.038;2023-02-01T18:38:10;93570.03;;;4.60
40968;BMP280;57377;45.130;6.038;2023-02-01T18:40:41;93573.84;;;4.69
40968;BMP280;57377;45.130;6.038;2023-02-01T18:43:16;93581.69;;;4.62
40968;BMP280;57377;45.130;6.038;2023-02-01T18:45:43;93587.19;;;4.54
40968;BMP280;57377;45.130;6.038;2023-02-01T18:48:13;93581.69;;;4.62
40968;BMP280;57377;45.130;6.038;2023-02-01T18:50:41;93580.25;;;4.55
40968;BMP280;57377;45.130;6.038;2023-02-01T18:53:12;93588.53;;;4.34
40968;BMP280;57377;45.130;6.038;2023-02-01T18:55:51;93602.75;;;4.37
40968;BMP280;57377;45.130;6.038;2023-02-01T19:02:01;93619.50;;;4.05
40968;BMP280;57377;45.130;6.038;2023-02-01T22:44:41;93622.91;;;4.96
40968;BMP280;57377;45.130;6.038;2023-02-01T22:47:13;93617.66;;;4.91
40968;BMP280;57377;45.130;6.038;2023-02-01T22:56:08;93632.16;;;4.07
40968;BMP280;57377;45.130;6.038;2023-02-01T22:58:40;93628.41;;;4.43
40968;BMP280;57377;45.130;6.038;2023-02-01T23:08:23;93637.00;;;4.26
40968;BMP280;57377;45.130;6.038;2023-02-01T23:11:03;93645.41;;;4.21
40968;BMP280;57377;45.130;6.038;2023-02-01T23:13:54;93632.34;;;4.46
40968;BMP280;57377;45.130;6.038;2023-02-01T23:16:28;93638.03;;;3.84
40968;BMP280;57377;45.130;6.038;2023-02-01T23:18:59;93628.03;;;4.17
40968;BMP280;57377;45.130;6.038;2023-02-01T23:21:27;93633.97;;;4.17
40968;BMP280;57377;45.130;6.038;2023-02-01T23:24:19;93626.84;;;4.42
40968;BMP280;57377;45.130;6.038;2023-02-01T23:26:47;93622.72;;;4.52
40968;BMP280;57377;45.130;6.038;2023-02-01T23:29:19;93639.97;;;3.89
40968;BMP280;57377;45.130;6.038;2023-02-01T23:32:12;93627.03;;;4.29
40968;BMP280;57377;45.130;6.038;2023-02-01T23:34:48;93619.97;;;4.14
40968;BMP280;57377;45.130;6.038;2023-02-01T23:37:37;93618.28;;;4.08
40968;BMP280;57377;45.130;6.038;2023-02-01T23:40:36;93621.56;;;4.26
40968;BMP280;57377;45.130;6.038;2023-02-01T23:53:09;93627.50;;;4.26
40968;BMP280;57377;45.130;6.038;2023-02-01T23:56:35;93624.34;;;4.13
